sensor_id;sensor_type;location;lat;lon;timestamp;pressure;altitude;pressure_sealevel;temperature;humidity
25855;BME280;13680;49.936;11.344;2023-09-19T00:01:31;96223.19;;;16.72;87.12
25855;BME280;13680;49.936;11.344;2023-09-19T00:03:57;96221.28;;;16.73;86.60
25855;BME280;13680;49.936;11.344;2023-09-19T00:06:23;96216.81;;;16.64;86.63
25855;BME280;13680;49.936;11.344;2023-09-19T00:08:51;96224.44;;;16.59;86.46
25855;BME280;13680;49.936;11.344;2023-09-19T00:11:17;96211.66;;;16.59;86.48
25855;BME280;13680;49.936;11.344;2023-09-19T00:13:42;96214.28;;;16.56;86.48
25855;BME280;13680;49.936;11.344;2023-09-19T00:16:09;96219.97;;;16.50;86.41
25855;BME280;13680;49.936;11.344;2023-09-19T00:18:39;96215.25;;;16.47;86.00
25855;BME280;13680;49.936;11.344;2023-09-19T00:21:04;96224.78;;;16.41;86.01
25855;BME280;13680;49.936;11.344;2023-09-19T00:23:30;96215.44;;;16.39;85.98
25855;BME280;13680;49.936;11.344;2023-09-19T00:25:59;96224.59;;;16.34;85.79
25855;BME280;13680;49.936;11.344;2023-09-19T00:28:24;96222.16;;;16.29;86.30
25855;BME280;13680;49.936;11.344;2023-09-19T00:30:50;96221.47;;;16.32;86.53
25855;BME280;13680;49.936;11.344;2023-09-19T00:33:15;96223.81;;;16.33;86.13
25855;BME280;13680;49.936;11.344;2023-09-19T00:35:53;96224.88;;;16.29;87.26
25855;BME280;13680;49.936;11.344;2023-09-19T00:38:20;96228.53;;;16.36;87.33
25855;BME280;13680;49.936;11.344;2023-09-19T00:40:48;96223.31;;;16.44;87.61
25855;BME280;13680;49.936;11.344;2023-09-19T00:43:14;96225.31;;;16.47;87.75
25855;BME280;13680;49.936;11.344;2023-09-19T00:45:44;96222.84;;;16.42;88.12
25855;BME280;13680;49.936;11.344;2023-09-19T00:48:10;96229.50;;;16.44;87.56
25855;BME280;13680;49.936;11.344;2023-09-19T00:50:37;96227.25;;;16.46;87.78
25855;BME280;13680;49.936;11.344;2023-09-19T00:53:05;96227.50;;;16.41;87.57
25855;BME280;13680;49.936;11.344;2023-09-19T00:55:34;96232.47;;;16.39;87.44
25855;BME280;13680;49.936;11.344;2023-09-19T00:57:59;96226.38;;;16.42;87.83
25855;BME280;13680;49.936;11.344;2023-09-19T01:00:25;96230.13;;;16.38;88.48
25855;BME280;13680;49.936;11.344;2023-09-19T01:02:51;96230.66;;;16.43;88.59
25855;BME280;13680;49.936;11.344;2023-09-19T01:05:17;96227.75;;;16.36;89.24
25855;BME280;13680;49.936;11.344;2023-09-19T01:07:43;96230.94;;;16.38;89.14
25855;BME280;13680;49.936;11.344;2023-09-19T01:10:15;96238.63;;;16.36;89.80
25855;BME280;13680;49.936;11.344;2023-09-19T01:16:04;96235.91;;;16.36;89.66
25855;BME280;13680;49.936;11.344;2023-09-19T01:21:28;96230.47;;;16.36;90.25
25855;BME280;13680;49.936;11.344;2023-09-19T01:27:15;96239.75;;;16.35;90.02
25855;BME280;13680;49.936;11.344;2023-09-19T01:29:44;96240.88;;;16.34;90.63
25855;BME280;13680;49.936;11.344;2023-09-19T01:32:14;96250.09;;;16.29;90.63
25855;BME280;13680;49.936;11.344;2023-09-19T01:35:07;96251.06;;;16.37;90.16
25855;BME280;13680;49.936;11.344;2023-09-19T01:37:37;96255.34;;;16.38;90.23
25855;BME280;13680;49.936;11.344;2023-09-19T01:40:04;96257.16;;;16.34;90.84
25855;BME280;13680;49.936;11.344;2023-09-19T01:42:52;96252.63;;;16.38;90.79
25855;BME280;13680;49.936;11.344;2023-09-19T01:48:24;96245.88;;;16.32;90.95
25855;BME280;13680;49.936;11.344;2023-09-19T01:51:02;96259.38;;;16.28;90.93
25855;BME280;13680;49.936;11.344;2023-09-19T01:53:36;96262.84;;;16.29;90.76
25855;BME280;13680;49.936;11.344;2023-09-19T01:56:08;96263.19;;;16.27;90.50
25855;BME280;13680;49.936;11.344;2023-09-19T01:58:42;96263.97;;;16.28;90.29
25855;BME280;13680;49.936;11.344;2023-09-19T02:01:12;96264.25;;;16.23;90.65
25855;BME280;13680;49.936;11.344;2023-09-19T02:03:40;96264.69;;;16.25;90.79
25855;BME280;13680;49.936;11.344;2023-09-19T02:06:06;96266.28;;;16.26;90.30
25855;BME280;13680;49.936;11.344;2023-09-19T02:08:36;96268.88;;;16.22;90.38
25855;BME280;13680;49.936;11.344;2023-09-19T02:11:02;96276.94;;;16.18;90.43
25855;BME280;13680;49.936;11.344;2023-09-19T02:13:27;96268.78;;;16.18;90.43
25855;BME280;13680;49.936;11.344;2023-09-19T02:15:53;96282.25;;;16.15;90.17
25855;BME280;13680;49.936;11.344;2023-09-19T02:18:19;96279.63;;;16.18;90.25
25855;BME280;13680;49.936;11.344;2023-09-19T02:20:44;96276.50;;;16.16;90.20
25855;BME280;13680;49.936;11.344;2023-09-19T02:23:11;96274.22;;;16.18;90.43
25855;BME280;13680;49.936;11.344;2023-09-19T02:25:38;96271.16;;;16.20;90.41
25855;BME280;13680;49.936;11.344;2023-09-19T02:28:05;96278.97;;;16.22;91.18
25855;BME280;13680;49.936;11.344;2023-09-19T02:30:31;96276.66;;;16.24;91.41
25855;BME280;13680;49.936;11.344;2023-09-19T02:32:56;96272.56;;;16.30;91.41
25855;BME280;13680;49.936;11.344;2023-09-19T02:35:22;96289.72;;;16.34;91.28
25855;BME280;13680;49.936;11.344;2023-09-19T02:37:48;96276.16;;;16.34;92.03
25855;BME280;13680;49.936;11.344;2023-09-19T02:40:14;96285.19;;;16.38;92.38
25855;BME280;13680;49.936;11.344;2023-09-19T02:42:48;96288.94;;;16.49;91.89
25855;BME280;13680;49.936;11.344;2023-09-19T02:45:18;96289.22;;;16.44;93.06
25855;BME280;13680;49.936;11.344;2023-09-19T02:47:44;96293.25;;;16.50;93.57
25855;BME280;13680;49.936;11.344;2023-09-19T02:50:10;96276.97;;;16.50;93.48
25855;BME280;13680;49.936;11.344;2023-09-19T02:52:37;96286.06;;;16.58;93.03
25855;BME280;13680;49.936;11.344;2023-09-19T02:55:03;96285.91;;;16.67;92.50
25855;BME280;13680;49.936;11.344;2023-09-19T02:57:30;96285.22;;;16.70;92.86
25855;BME280;13680;49.936;11.344;2023-09-19T02:59:59;96286.94;;;16.78;92.82
25855;BME280;13680;49.936;11.344;2023-09-19T03:02:31;96293.25;;;16.82;92.50
25855;BME280;13680;49.936;11.344;2023-09-19T03:05:00;96284.31;;;16.82;92.91
25855;BME280;13680;49.936;11.344;2023-09-19T03:07:25;96295.28;;;16.85;92.49
25855;BME280;13680;49.936;11.344;2023-09-19T03:09:50;96294.19;;;16.90;92.72
25855;BME280;13680;49.936;11.344;2023-09-19T03:12:18;96303.28;;;16.94;92.56
25855;BME280;13680;49.936;11.344;2023-09-19T03:14:43;96295.91;;;16.95;92.73
25855;BME280;13680;49.936;11.344;2023-09-19T03:17:09;96302.63;;;17.01;92.54
25855;BME280;13680;49.936;11.344;2023-09-19T03:19:34;96303.94;;;17.07;92.73
25855;BME280;13680;49.936;11.344;2023-09-19T03:21:59;96304.72;;;17.08;92.88
25855;BME280;13680;49.936;11.344;2023-09-19T03:24:25;96305.59;;;17.12;92.88
25855;BME280;13680;49.936;11.344;2023-09-19T03:26:51;96312.34;;;17.18;92.68
25855;BME280;13680;49.936;11.344;2023-09-19T03:29:17;96311.56;;;17.17;92.52
25855;BME280;13680;49.936;11.344;2023-09-19T03:31:43;96314.28;;;17.17;92.61
25855;BME280;13680;49.936;11.344;2023-09-19T03:34:08;96318.56;;;17.18;92.83
25855;BME280;13680;49.936;11.344;2023-09-19T03:36:34;96311.19;;;17.19;92.97
25855;BME280;13680;49.936;11.344;2023-09-19T03:38:59;96320.47;;;17.18;93.04
25855;BME280;13680;49.936;11.344;2023-09-19T03:41:25;96323.66;;;17.20;93.17
25855;BME280;13680;49.936;11.344;2023-09-19T03:43:50;96329.09;;;17.20;93.45
25855;BME280;13680;49.936;11.344;2023-09-19T03:46:15;96326.09;;;17.25;93.06
25855;BME280;13680;49.936;11.344;2023-09-19T03:48:41;96327.59;;;17.23;93.36
25855;BME280;13680;49.936;11.344;2023-09-19T03:51:06;96327.75;;;17.30;92.92
25855;BME280;13680;49.936;11.344;2023-09-19T03:53:32;96327.03;;;17.33;92.45
25855;BME280;13680;49.936;11.344;2023-09-19T03:55:57;96336.50;;;17.39;92.28
25855;BME280;13680;49.936;11.344;2023-09-19T03:58:22;96329.84;;;17.37;92.14
25855;BME280;13680;49.936;11.344;2023-09-19T04:00:48;96323.28;;;17.38;91.52
25855;BME280;13680;49.936;11.344;2023-09-19T04:03:15;96330.88;;;17.32;92.24
25855;BME280;13680;49.936;11.344;2023-09-19T04:05:46;96315.44;;;17.36;92.10
25855;BME280;13680;49.936;11.344;2023-09-19T04:08:12;96324.03;;;17.38;92.37
25855;BME280;13680;49.936;11.344;2023-09-19T04:10:37;96326.84;;;17.42;91.84
25855;BME280;13680;49.936;11.344;2023-09-19T04:13:03;96328.22;;;17.51;90.77
25855;BME280;13680;49.936;11.344;2023-09-19T04:15:29;96343.25;;;17.45;91.61
25855;BME280;13680;49.936;11.344;2023-09-19T04:17:54;96327.25;;;17.44;91.33
25855;BME280;13680;49.936;11.344;2023-09-19T04:20:20;96334.19;;;17.41;91.01
25855;BME280;13680;49.936;11.344;2023-09-19T04:22:46;96336.50;;;17.39;90.90
25855;BME280;13680;49.936;11.344;2023-09-19T04:25:12;96344.50;;;17.51;90.54
25855;BME280;13680;49.936;11.344;2023-09-19T04:27:37;96338.47;;;17.58;89.90
25855;BME280;13680;49.936;11.344;2023-09-19T04:30:03;96334.94;;;17.58;89.56
25855;BME280;13680;49.936;11.344;2023-09-19T04:32:34;96338.38;;;17.55;89.79
25855;BME280;13680;49.936;11.344;2023-09-19T04:35:01;96338.56;;;17.62;89.60
25855;BME280;13680;49.936;11.344;2023-09-19T04:37:30;96336.88;;;17.57;89.22
25855;BME280;13680;49.936;11.344;2023-09-19T04:39:55;96336.31;;;17.67;89.09
25855;BME280;13680;49.936;11.344;2023-09-19T04:42:21;96341.59;;;17.60;89.34
25855;BME280;13680;49.936;11.344;2023-09-19T04:44:47;96350.84;;;17.56;89.49
25855;BME280;13680;49.936;11.344;2023-09-19T04:47:14;96343.25;;;17.65;89.49
25855;BME280;13680;49.936;11.344;2023-09-19T04:49:41;96345.13;;;17.61;89.46
25855;BME280;13680;49.936;11.344;2023-09-19T04:52:06;96353.41;;;17.68;89.42
25855;BME280;13680;49.936;11.344;2023-09-19T04:54:32;96341.59;;;17.60;89.92
25855;BME280;13680;49.936;11.344;2023-09-19T04:56:59;96353.09;;;17.70;88.99
25855;BME280;13680;49.936;11.344;2023-09-19T04:59:24;96349.47;;;17.65;89.27
25855;BME280;13680;49.936;11.344;2023-09-19T05:01:49;96361.56;;;17.68;89.39
25855;BME280;13680;49.936;11.344;2023-09-19T05:04:15;96356.69;;;17.58;89.57
25855;BME280;13680;49.936;11.344;2023-09-19T05:06:40;96353.09;;;17.70;88.50
25855;BME280;13680;49.936;11.344;2023-09-19T05:09:06;96351.88;;;17.67;88.98
25855;BME280;13680;49.936;11.344;2023-09-19T05:11:31;96366.16;;;17.64;88.97
25855;BME280;13680;49.936;11.344;2023-09-19T05:13:56;96370.94;;;17.71;89.35
25855;BME280;13680;49.936;11.344;2023-09-19T05:16:22;96373.00;;;17.58;89.14
25855;BME280;13680;49.936;11.344;2023-09-19T05:18:47;96360.59;;;17.76;87.86
25855;BME280;13680;49.936;11.344;2023-09-19T05:21:13;96362.47;;;17.72;88.44
25855;BME280;13680;49.936;11.344;2023-09-19T05:23:38;96357.97;;;17.80;88.19
25855;BME280;13680;49.936;11.344;2023-09-19T05:26:03;96364.72;;;17.70;88.35
25855;BME280;13680;49.936;11.344;2023-09-19T05:28:30;96354.78;;;17.58;88.76
25855;BME280;13680;49.936;11.344;2023-09-19T05:31:00;96365.09;;;17.69;88.79
25855;BME280;13680;49.936;11.344;2023-09-19T05:33:26;96371.84;;;17.75;88.17
25855;BME280;13680;49.936;11.344;2023-09-19T05:35:52;96367.38;;;17.66;88.89
25855;BME280;13680;49.936;11.344;2023-09-19T05:38:19;96363.75;;;17.78;87.78
25855;BME280;13680;49.936;11.344;2023-09-19T05:40:45;96367.47;;;17.70;88.23
25855;BME280;13680;49.936;11.344;2023-09-19T05:43:11;96374.13;;;17.73;88.22
25855;BME280;13680;49.936;11.344;2023-09-19T05:45:36;96376.84;;;17.73;88.24
25855;BME280;13680;49.936;11.344;2023-09-19T05:48:10;96385.00;;;17.73;88.52
25855;BME280;13680;49.936;11.344;2023-09-19T05:50:39;96388.25;;;17.78;87.86
25855;BME280;13680;49.936;11.344;2023-09-19T05:53:05;96391.09;;;17.86;87.69
25855;BME280;13680;49.936;11.344;2023-09-19T05:55:34;96394.53;;;17.31;89.30
25855;BME280;13680;49.936;11.344;2023-09-19T05:57:59;96394.72;;;17.38;90.17
25855;BME280;13680;49.936;11.344;2023-09-19T06:00:25;96389.81;;;17.28;91.26
25855;BME280;13680;49.936;11.344;2023-09-19T06:02:56;96406.53;;;17.46;91.06
25855;BME280;13680;49.936;11.344;2023-09-19T06:05:26;96408.81;;;17.44;91.53
25855;BME280;13680;49.936;11.344;2023-09-19T06:07:52;96409.66;;;17.64;90.32
25855;BME280;13680;49.936;11.344;2023-09-19T06:10:18;96409.56;;;17.60;90.43
25855;BME280;13680;49.936;11.344;2023-09-19T06:12:46;96418.28;;;17.50;90.87
25855;BME280;13680;49.936;11.344;2023-09-19T06:15:15;96408.59;;;17.69;89.53
25855;BME280;13680;49.936;11.344;2023-09-19T06:17:42;96417.50;;;17.49;89.29
25855;BME280;13680;49.936;11.344;2023-09-19T06:20:08;96418.81;;;17.56;89.30
25855;BME280;13680;49.936;11.344;2023-09-19T06:22:43;96420.44;;;17.60;89.22
25855;BME280;13680;49.936;11.344;2023-09-19T06:25:10;96417.59;;;17.53;88.61
25855;BME280;13680;49.936;11.344;2023-09-19T06:27:44;96414.59;;;17.42;89.00
25855;BME280;13680;49.936;11.344;2023-09-19T06:30:10;96425.66;;;17.49;89.23
25855;BME280;13680;49.936;11.344;2023-09-19T06:32:39;96423.53;;;17.59;88.19
25855;BME280;13680;49.936;11.344;2023-09-19T06:35:05;96422.56;;;17.67;88.20
25855;BME280;13680;49.936;11.344;2023-09-19T06:37:34;96433.75;;;17.81;86.23
25855;BME280;13680;49.936;11.344;2023-09-19T06:40:05;96442.78;;;17.86;86.95
25855;BME280;13680;49.936;11.344;2023-09-19T06:42:31;96439.19;;;17.81;88.01
25855;BME280;13680;49.936;11.344;2023-09-19T06:44:56;96440.69;;;17.63;87.87
25855;BME280;13680;49.936;11.344;2023-09-19T06:47:21;96448.28;;;18.05;86.17
25855;BME280;13680;49.936;11.344;2023-09-19T06:49:47;96441.34;;;18.08;85.96
25855;BME280;13680;49.936;11.344;2023-09-19T06:52:13;96447.72;;;18.15;85.31
25855;BME280;13680;49.936;11.344;2023-09-19T06:54:38;96447.78;;;17.99;85.53
25855;BME280;13680;49.936;11.344;2023-09-19T06:57:05;96448.31;;;18.44;83.06
25855;BME280;13680;49.936;11.344;2023-09-19T06:59:31;96444.09;;;18.27;82.64
25855;BME280;13680;49.936;11.344;2023-09-19T07:01:57;96446.16;;;18.73;81.11
25855;BME280;13680;49.936;11.344;2023-09-19T07:04:24;96461.19;;;18.67;80.11
25855;BME280;13680;49.936;11.344;2023-09-19T07:06:50;96457.41;;;18.52;80.39
25855;BME280;13680;49.936;11.344;2023-09-19T07:09:16;96461.66;;;19.12;76.88
25855;BME280;13680;49.936;11.344;2023-09-19T07:11:41;96463.84;;;19.03;77.56
25855;BME280;13680;49.936;11.344;2023-09-19T07:14:07;96466.34;;;18.33;77.46
25855;BME280;13680;49.936;11.344;2023-09-19T07:16:33;96475.09;;;18.81;76.09
25855;BME280;13680;49.936;11.344;2023-09-19T07:18:58;96477.41;;;18.79;74.60
25855;BME280;13680;49.936;11.344;2023-09-19T07:21:24;96486.97;;;18.34;74.74
25855;BME280;13680;49.936;11.344;2023-09-19T07:23:49;96487.84;;;18.38;73.69
25855;BME280;13680;49.936;11.344;2023-09-19T07:26:16;96487.38;;;18.16;74.81
25855;BME280;13680;49.936;11.344;2023-09-19T07:28:41;96488.53;;;18.51;74.34
25855;BME280;13680;49.936;11.344;2023-09-19T07:31:06;96495.91;;;18.90;73.94
25855;BME280;13680;49.936;11.344;2023-09-19T07:33:35;96493.25;;;18.93;71.67
25855;BME280;13680;49.936;11.344;2023-09-19T07:36:01;96490.13;;;19.14;70.28
25855;BME280;13680;49.936;11.344;2023-09-19T07:38:26;96501.88;;;19.19;69.66
25855;BME280;13680;49.936;11.344;2023-09-19T07:40:52;96495.81;;;18.86;70.43
25855;BME280;13680;49.936;11.344;2023-09-19T07:43:17;96502.03;;;18.87;70.42
25855;BME280;13680;49.936;11.344;2023-09-19T07:45:43;96496.69;;;19.10;69.15
25855;BME280;13680;49.936;11.344;2023-09-19T07:48:08;96494.28;;;19.08;69.78
25855;BME280;13680;49.936;11.344;2023-09-19T07:50:39;96503.53;;;18.84;69.90
25855;BME280;13680;49.936;11.344;2023-09-19T07:53:05;96505.19;;;19.08;69.17
25855;BME280;13680;49.936;11.344;2023-09-19T07:55:31;96503.84;;;18.59;69.65
25855;BME280;13680;49.936;11.344;2023-09-19T07:57:59;96511.97;;;18.75;70.34
25855;BME280;13680;49.936;11.344;2023-09-19T08:00:24;96524.00;;;18.74;69.33
25855;BME280;13680;49.936;11.344;2023-09-19T08:02:49;96517.19;;;18.64;69.58
25855;BME280;13680;49.936;11.344;2023-09-19T08:05:17;96513.03;;;18.90;69.74
25855;BME280;13680;49.936;11.344;2023-09-19T08:07:45;96513.28;;;19.48;68.32
25855;BME280;13680;49.936;11.344;2023-09-19T08:10:14;96515.47;;;19.38;68.13
25855;BME280;13680;49.936;11.344;2023-09-19T08:12:44;96524.72;;;19.34;68.55
25855;BME280;13680;49.936;11.344;2023-09-19T08:15:19;96528.44;;;19.45;67.99
25855;BME280;13680;49.936;11.344;2023-09-19T08:17:45;96534.25;;;19.43;67.35
25855;BME280;13680;49.936;11.344;2023-09-19T08:20:11;96539.97;;;18.76;70.11
25855;BME280;13680;49.936;11.344;2023-09-19T08:22:49;96554.38;;;18.57;69.97
25855;BME280;13680;49.936;11.344;2023-09-19T08:25:17;96549.97;;;19.07;67.70
25855;BME280;13680;49.936;11.344;2023-09-19T08:27:43;96548.06;;;19.31;68.39
25855;BME280;13680;49.936;11.344;2023-09-19T08:30:13;96554.25;;;19.28;66.50
25855;BME280;13680;49.936;11.344;2023-09-19T08:32:39;96553.59;;;19.58;64.74
25855;BME280;13680;49.936;11.344;2023-09-19T08:35:06;96553.94;;;19.13;65.36
25855;BME280;13680;49.936;11.344;2023-09-19T08:37:32;96552.13;;;19.41;64.06
25855;BME280;13680;49.936;11.344;2023-09-19T08:39:57;96560.38;;;19.44;65.50
25855;BME280;13680;49.936;11.344;2023-09-19T08:42:23;96549.34;;;19.84;64.00
25855;BME280;13680;49.936;11.344;2023-09-19T08:44:50;96545.22;;;19.93;64.26
25855;BME280;13680;49.936;11.344;2023-09-19T08:47:21;96556.66;;;19.79;64.75
25855;BME280;13680;49.936;11.344;2023-09-19T08:50:01;96546.75;;;19.91;64.06
25855;BME280;13680;49.936;11.344;2023-09-19T08:52:41;96548.31;;;19.69;65.41
25855;BME280;13680;49.936;11.344;2023-09-19T08:55:07;96539.19;;;20.34;63.58
25855;BME280;13680;49.936;11.344;2023-09-19T08:57:37;96544.09;;;20.21;62.96
25855;BME280;13680;49.936;11.344;2023-09-19T09:00:07;96547.56;;;20.18;63.45
25855;BME280;13680;49.936;11.344;2023-09-19T09:02:40;96544.72;;;20.68;59.77
25855;BME280;13680;49.936;11.344;2023-09-19T09:05:09;96541.06;;;20.57;59.97
25855;BME280;13680;49.936;11.344;2023-09-19T09:07:37;96546.97;;;20.63;58.68
25855;BME280;13680;49.936;11.344;2023-09-19T09:10:03;96554.84;;;20.37;59.38
25855;BME280;13680;49.936;11.344;2023-09-19T09:12:29;96560.16;;;20.84;56.81
25855;BME280;13680;49.936;11.344;2023-09-19T09:14:55;96569.34;;;20.41;56.53
25855;BME280;13680;49.936;11.344;2023-09-19T09:17:23;96563.19;;;19.94;58.28
25855;BME280;13680;49.936;11.344;2023-09-19T09:19:52;96560.22;;;20.03;58.66
25855;BME280;13680;49.936;11.344;2023-09-19T09:22:18;96559.72;;;20.51;56.46
25855;BME280;13680;49.936;11.344;2023-09-19T09:24:53;96577.59;;;20.45;56.62
25855;BME280;13680;49.936;11.344;2023-09-19T09:27:26;96585.19;;;20.05;58.30
25855;BME280;13680;49.936;11.344;2023-09-19T09:29:52;96578.47;;;19.99;58.73
25855;BME280;13680;49.936;11.344;2023-09-19T09:32:28;96581.91;;;19.96;59.20
25855;BME280;13680;49.936;11.344;2023-09-19T09:35:07;96585.78;;;19.72;59.81
25855;BME280;13680;49.936;11.344;2023-09-19T09:37:35;96590.53;;;19.98;59.29
25855;BME280;13680;49.936;11.344;2023-09-19T09:40:04;96595.34;;;19.62;59.98
25855;BME280;13680;49.936;11.344;2023-09-19T09:42:42;96594.94;;;19.60;60.98
25855;BME280;13680;49.936;11.344;2023-09-19T09:45:19;96596.63;;;19.88;60.78
25855;BME280;13680;49.936;11.344;2023-09-19T09:47:53;96598.97;;;19.46;61.80
25855;BME280;13680;49.936;11.344;2023-09-19T09:50:34;96594.09;;;20.02;60.06
25855;BME280;13680;49.936;11.344;2023-09-19T09:53:29;96593.03;;;20.07;58.85
25855;BME280;13680;49.936;11.344;2023-09-19T09:56:07;96584.75;;;19.80;59.77
25855;BME280;13680;49.936;11.344;2023-09-19T09:59:00;96587.00;;;20.48;59.48
25855;BME280;13680;49.936;11.344;2023-09-19T10:01:46;96591.09;;;20.91;57.60
25855;BME280;13680;49.936;11.344;2023-09-19T10:04:26;96603.88;;;20.03;57.82
25855;BME280;13680;49.936;11.344;2023-09-19T10:06:54;96603.94;;;20.07;57.18
25855;BME280;13680;49.936;11.344;2023-09-19T10:09:20;96592.59;;;20.32;56.33
25855;BME280;13680;49.936;11.344;2023-09-19T10:12:00;96599.31;;;20.11;55.60
25855;BME280;13680;49.936;11.344;2023-09-19T10:14:30;96596.00;;;19.98;55.72
25855;BME280;13680;49.936;11.344;2023-09-19T10:16:58;96599.34;;;19.45;57.18
25855;BME280;13680;49.936;11.344;2023-09-19T10:19:58;96591.00;;;19.57;56.67
25855;BME280;13680;49.936;11.344;2023-09-19T10:22:26;96589.81;;;20.01;55.47
25855;BME280;13680;49.936;11.344;2023-09-19T10:24:53;96594.75;;;19.29;57.64
25855;BME280;13680;49.936;11.344;2023-09-19T10:27:20;96591.53;;;19.67;57.41
25855;BME280;13680;49.936;11.344;2023-09-19T10:29:49;96594.34;;;19.93;57.18
25855;BME280;13680;49.936;11.344;2023-09-19T10:32:19;96585.78;;;19.95;56.87
25855;BME280;13680;49.936;11.344;2023-09-19T10:34:47;96578.25;;;20.65;56.03
25855;BME280;13680;49.936;11.344;2023-09-19T10:37:13;96587.19;;;20.89;55.51
25855;BME280;13680;49.936;11.344;2023-09-19T10:39:40;96580.97;;;21.26;53.05
25855;BME280;13680;49.936;11.344;2023-09-19T10:42:07;96579.09;;;22.20;53.00
25855;BME280;13680;49.936;11.344;2023-09-19T10:44:37;96566.81;;;22.55;50.19
25855;BME280;13680;49.936;11.344;2023-09-19T10:47:09;96566.06;;;22.62;49.69
25855;BME280;13680;49.936;11.344;2023-09-19T10:49:35;96555.94;;;22.66;48.65
25855;BME280;13680;49.936;11.344;2023-09-19T10:52:00;96560.53;;;22.47;49.37
25855;BME280;13680;49.936;11.344;2023-09-19T10:54:31;96566.88;;;22.69;48.84
25855;BME280;13680;49.936;11.344;2023-09-19T10:56:59;96553.72;;;23.08;48.36
25855;BME280;13680;49.936;11.344;2023-09-19T10:59:26;96562.50;;;23.57;48.26
25855;BME280;13680;49.936;11.344;2023-09-19T11:02:00;96557.84;;;23.97;47.51
25855;BME280;13680;49.936;11.344;2023-09-19T11:04:40;96566.03;;;23.72;46.37
25855;BME280;13680;49.936;11.344;2023-09-19T11:07:12;96563.34;;;24.08;45.51
25855;BME280;13680;49.936;11.344;2023-09-19T11:15:02;96584.16;;;21.69;48.65
25855;BME280;13680;49.936;11.344;2023-09-19T11:17:42;96574.72;;;21.63;49.80
25855;BME280;13680;49.936;11.344;2023-09-19T11:30:42;96546.66;;;22.96;48.80
25855;BME280;13680;49.936;11.344;2023-09-19T11:36:09;96565.06;;;22.25;49.60
25855;BME280;13680;49.936;11.344;2023-09-19T11:41:36;96555.94;;;22.66;48.12
25855;BME280;13680;49.936;11.344;2023-09-19T11:49:17;96550.75;;;23.85;46.14
25855;BME280;13680;49.936;11.344;2023-09-19T11:51:50;96555.75;;;24.84;43.24
25855;BME280;13680;49.936;11.344;2023-09-19T11:54:17;96543.66;;;24.42;43.85
25855;BME280;13680;49.936;11.344;2023-09-19T11:56:44;96543.72;;;23.98;43.46
25855;BME280;13680;49.936;11.344;2023-09-19T11:59:11;96541.28;;;24.55;42.26
25855;BME280;13680;49.936;11.344;2023-09-19T12:01:37;96551.44;;;25.61;41.99
25855;BME280;13680;49.936;11.344;2023-09-19T12:04:08;96544.94;;;25.26;40.79
25855;BME280;13680;49.936;11.344;2023-09-19T12:06:36;96549.19;;;23.84;44.17
25855;BME280;13680;49.936;11.344;2023-09-19T12:09:04;96558.19;;;23.52;45.39
25855;BME280;13680;49.936;11.344;2023-09-19T12:11:32;96551.72;;;22.94;46.29
25855;BME280;13680;49.936;11.344;2023-09-19T12:13:58;96551.53;;;23.60;46.04
25855;BME280;13680;49.936;11.344;2023-09-19T12:16:26;96549.94;;;24.49;43.81
25855;BME280;13680;49.936;11.344;2023-09-19T12:18:55;96547.56;;;24.51;42.33
25855;BME280;13680;49.936;11.344;2023-09-19T12:21:29;96553.34;;;25.68;40.87
25855;BME280;13680;49.936;11.344;2023-09-19T12:24:06;96549.25;;;25.30;41.42
25855;BME280;13680;49.936;11.344;2023-09-19T12:26:42;96556.47;;;24.95;39.05
25855;BME280;13680;49.936;11.344;2023-09-19T12:29:17;96566.56;;;25.87;38.30
25855;BME280;13680;49.936;11.344;2023-09-19T12:31:54;96561.63;;;25.68;39.12
25855;BME280;13680;49.936;11.344;2023-09-19T12:34:32;96552.19;;;24.91;38.79
25855;BME280;13680;49.936;11.344;2023-09-19T12:37:07;96548.41;;;24.19;40.97
25855;BME280;13680;49.936;11.344;2023-09-19T12:39:53;96564.09;;;23.76;42.67
25855;BME280;13680;49.936;11.344;2023-09-19T12:42:24;96560.19;;;23.84;41.77
25855;BME280;13680;49.936;11.344;2023-09-19T12:44:54;96557.03;;;23.78;42.07
25855;BME280;13680;49.936;11.344;2023-09-19T12:47:23;96557.44;;;24.34;40.09
25855;BME280;13680;49.936;11.344;2023-09-19T12:50:15;96549.56;;;24.40;40.32
25855;BME280;13680;49.936;11.344;2023-09-19T12:52:46;96550.78;;;25.39;39.41
25855;BME280;13680;49.936;11.344;2023-09-19T12:55:22;96548.72;;;24.68;39.70
25855;BME280;13680;49.936;11.344;2023-09-19T12:58:14;96551.56;;;24.11;41.35
25855;BME280;13680;49.936;11.344;2023-09-19T13:00:43;96540.47;;;24.72;39.31
25855;BME280;13680;49.936;11.344;2023-09-19T13:05:57;96547.63;;;24.33;40.38
25855;BME280;13680;49.936;11.344;2023-09-19T13:08:32;96540.06;;;24.77;39.74
25855;BME280;13680;49.936;11.344;2023-09-19T13:11:12;96544.38;;;24.82;40.01
25855;BME280;13680;49.936;11.344;2023-09-19T13:16:56;96536.34;;;26.25;37.68
25855;BME280;13680;49.936;11.344;2023-09-19T13:19:41;96536.44;;;25.65;35.88
25855;BME280;13680;49.936;11.344;2023-09-19T13:22:41;96545.22;;;25.49;36.11
25855;BME280;13680;49.936;11.344;2023-09-19T13:25:14;96538.16;;;25.45;35.61
25855;BME280;13680;49.936;11.344;2023-09-19T13:27:44;96534.34;;;25.24;35.26
25855;BME280;13680;49.936;11.344;2023-09-19T13:30:11;96528.53;;;25.04;36.66
25855;BME280;13680;49.936;11.344;2023-09-19T13:32:37;96544.13;;;25.32;36.07
25855;BME280;13680;49.936;11.344;2023-09-19T13:35:04;96538.63;;;24.08;38.47
25855;BME280;13680;49.936;11.344;2023-09-19T13:37:33;96532.22;;;25.50;36.35
25855;BME280;13680;49.936;11.344;2023-09-19T13:40:00;96541.69;;;26.02;35.29
25855;BME280;13680;49.936;11.344;2023-09-19T13:42:25;96539.56;;;26.97;35.36
25855;BME280;13680;49.936;11.344;2023-09-19T13:44:55;96544.97;;;27.35;33.80